Alvord, Iowa
Current Conditions -  °F | °C
As of 12:15 AM on Thursday 29 Jan 2015 (Local Time) from KLYV Reporting Station
Overcast Overcast  
Wind Chill: -4°   Ceiling: 1900
Heat Index:   Visibility: 10mi
Dew Point:   Wind: 18mph
Humidity: 87%   Direction: 340°NNW
Pressure: 29.99"   Gusts: 25mph
Location:  43.34°N, 96.3°W
Report Text: KLYV 290615Z AUTO 34016G22KT 10SM OVC019 02/00 A2999 RMK AO2
Loading
Personal Weather Stations






























Interactive Weather Map New forecast layout! Learn more

10-Day Weather Forecast

Advertisements
Track Severe Weather on mobile